Time;durP1;ratioP1;P1;durP2;ratioP2;P2;SDS_P1;SDS_P2;PMS_P1;PMS_P2;Temp;Humidity;BMP_temperature;BMP_pressure;BME280_temperature;BME280_humidity;BME280_pressure;Samples;Min_cycle;Max_cycle;Signal;HPM_P1;HPM_P2
2023/07/27 00:02:15;;;;;;;2.63;1.63;;;;;;;;;;6226832;23;20519;-77
2023/07/27 00:04:47;;;;;;;2.90;1.60;;;;;;;;;;6226450;23;20457;-77
2023/07/27 00:07:15;;;;;;;3.80;1.83;;;;;;;;;;6200064;23;20422;-77
2023/07/27 00:09:43;;;;;;;2.90;1.70;;;;;;;;;;6226325;23;20414;-77
2023/07/27 00:12:11;;;;;;;2.87;2.07;;;;;;;;;;6226107;23;20456;-77
2023/07/27 00:14:38;;;;;;;3.57;2.00;;;;;;;;;;6227360;23;20409;-79
2023/07/27 00:17:19;;;;;;;2.73;1.80;;;;;;;;;;6223914;23;20390;-78
2023/07/27 00:19:48;;;;;;;4.63;1.60;;;;;;;;;;6221666;23;20843;-79
2023/07/27 00:22:15;;;;;;;3.07;2.17;;;;;;;;;;6223190;23;20424;-78
2023/07/27 00:24:44;;;;;;;4.90;1.80;;;;;;;;;;6226601;23;20714;-78
2023/07/27 00:27:11;;;;;;;2.93;1.80;;;;;;;;;;6222466;23;20521;-77
2023/07/27 00:29:39;;;;;;;3.30;2.03;;;;;;;;;;6226728;23;20422;-77
2023/07/27 00:32:07;;;;;;;3.47;1.90;;;;;;;;;;6225720;23;20418;-79
2023/07/27 00:34:38;;;;;;;2.90;1.90;;;;;;;;;;6224067;23;20449;-77
2023/07/27 00:37:08;;;;;;;3.60;2.00;;;;;;;;;;6223324;23;20410;-77
2023/07/27 00:39:37;;;;;;;5.87;2.27;;;;;;;;;;6223964;23;20421;-78
2023/07/27 00:42:05;;;;;;;3.60;2.30;;;;;;;;;;6227754;23;20876;-77
2023/07/27 00:44:33;;;;;;;3.80;2.30;;;;;;;;;;6226864;23;20430;-78
2023/07/27 00:47:00;;;;;;;5.43;2.77;;;;;;;;;;6232297;23;20430;-78
2023/07/27 00:49:28;;;;;;;4.83;2.07;;;;;;;;;;6225939;23;20456;-79
2023/07/27 00:51:55;;;;;;;3.30;2.30;;;;;;;;;;6226922;23;20454;-78
2023/07/27 00:54:25;;;;;;;3.93;2.50;;;;;;;;;;6225628;23;20538;-78
2023/07/27 00:56:53;;;;;;;4.00;2.30;;;;;;;;;;6226888;23;20418;-78
2023/07/27 00:59:21;;;;;;;5.53;2.57;;;;;;;;;;6228292;23;20448;-78
2023/07/27 01:01:49;;;;;;;6.53;3.13;;;;;;;;;;6225281;23;20488;-78
2023/07/27 01:04:17;;;;;;;5.37;2.70;;;;;;;;;;6224458;23;20446;-79
2023/07/27 01:06:45;;;;;;;5.00;3.20;;;;;;;;;;6227358;23;20595;-77
2023/07/27 01:09:13;;;;;;;10.30;2.70;;;;;;;;;;6225066;23;20733;-78
2023/07/27 01:11:49;;;;;;;5.77;3.07;;;;;;;;;;6229208;23;20446;-78
2023/07/27 01:14:26;;;;;;;3.57;2.57;;;;;;;;;;6225987;23;20470;-79
2023/07/27 01:16:58;;;;;;;5.00;2.70;;;;;;;;;;6224937;23;20405;-78
2023/07/27 01:19:42;;;;;;;4.93;2.70;;;;;;;;;;6227585;23;20394;-79
2023/07/27 01:22:18;;;;;;;4.33;2.90;;;;;;;;;;6225871;23;20426;-78
2023/07/27 01:24:55;;;;;;;4.40;2.60;;;;;;;;;;6226204;23;20481;-79
2023/07/27 01:27:32;;;;;;;4.03;2.67;;;;;;;;;;6225066;23;20421;-80
2023/07/27 01:30:09;;;;;;;5.17;2.73;;;;;;;;;;6224533;23;20750;-78
2023/07/27 01:32:39;;;;;;;4.90;2.87;;;;;;;;;;6225224;23;20414;-78
2023/07/27 01:35:08;;;;;;;4.80;3.63;;;;;;;;;;6224483;23;20410;-78
2023/07/27 01:37:36;;;;;;;4.37;2.90;;;;;;;;;;6224395;23;20422;-78
2023/07/27 01:40:08;;;;;;;4.40;3.40;;;;;;;;;;6224754;23;20824;-78
2023/07/27 01:42:36;;;;;;;6.30;3.10;;;;;;;;;;6223395;23;20449;-78
2023/07/27 01:45:07;;;;;;;4.53;2.83;;;;;;;;;;6223988;23;20427;-78
2023/07/27 01:47:35;;;;;;;4.20;2.67;;;;;;;;;;6224535;23;20439;-78
2023/07/27 01:50:16;;;;;;;5.23;2.90;;;;;;;;;;6223370;23;20437;-78
2023/07/27 01:52:44;;;;;;;7.13;3.47;;;;;;;;;;6225266;23;20685;-79
2023/07/27 01:55:15;;;;;;;7.57;3.30;;;;;;;;;;6225682;23;20663;-78
2023/07/27 01:57:44;;;;;;;6.40;2.90;;;;;;;;;;6224240;23;20406;-78
2023/07/27 02:00:14;;;;;;;8.10;3.20;;;;;;;;;;6225911;23;20702;-78
2023/07/27 02:02:43;;;;;;;3.80;2.60;;;;;;;;;;6201610;23;20540;-78
2023/07/27 02:05:12;;;;;;;13.30;2.97;;;;;;;;;;6228166;23;20446;-78
2023/07/27 02:07:40;;;;;;;4.43;2.87;;;;;;;;;;6230190;23;20445;-78
2023/07/27 02:10:09;;;;;;;5.27;3.30;;;;;;;;;;6226207;23;20428;-79
2023/07/27 02:12:41;;;;;;;5.60;2.90;;;;;;;;;;6225369;23;20424;-78
2023/07/27 02:15:12;;;;;;;4.33;2.60;;;;;;;;;;6222843;23;20387;-77
2023/07/27 02:17:41;;;;;;;5.67;4.07;;;;;;;;;;6225113;23;20405;-79
2023/07/27 02:20:11;;;;;;;3.70;3.00;;;;;;;;;;6227561;23;20418;-79
2023/07/27 02:22:41;;;;;;;4.03;2.40;;;;;;;;;;6229560;23;20441;-79
2023/07/27 02:25:10;;;;;;;5.67;3.37;;;;;;;;;;6230518;23;20454;-79
2023/07/27 02:27:37;;;;;;;7.20;3.17;;;;;;;;;;6228839;23;20473;-79
2023/07/27 02:30:08;;;;;;;5.20;2.50;;;;;;;;;;6229887;23;20421;-79
2023/07/27 02:32:35;;;;;;;9.90;3.30;;;;;;;;;;6225065;23;20386;-78
2023/07/27 02:35:03;;;;;;;4.70;3.33;;;;;;;;;;6225788;23;20421;-79
2023/07/27 02:37:30;;;;;;;5.97;3.87;;;;;;;;;;6225686;23;20667;-79
2023/07/27 02:39:59;;;;;;;6.90;4.63;;;;;;;;;;6227295;23;20414;-78
2023/07/27 02:42:27;;;;;;;5.30;3.80;;;;;;;;;;6230615;23;20418;-79
2023/07/27 02:44:54;;;;;;;6.60;3.60;;;;;;;;;;6231531;23;20866;-79
2023/07/27 02:47:22;;;;;;;6.40;3.87;;;;;;;;;;6231635;23;20401;-79
2023/07/27 02:49:50;;;;;;;6.40;3.63;;;;;;;;;;6232074;23;20418;-79
2023/07/27 02:52:17;;;;;;;5.47;3.80;;;;;;;;;;6222176;23;20418;-78
2023/07/27 02:54:45;;;;;;;7.60;4.33;;;;;;;;;;6226180;23;20483;-79
2023/07/27 02:57:14;;;;;;;8.67;3.80;;;;;;;;;;6222379;23;20425;-78
2023/07/27 02:59:41;;;;;;;5.97;3.20;;;;;;;;;;6223945;23;20397;-78
2023/07/27 03:02:09;;;;;;;5.30;4.13;;;;;;;;;;6222654;23;20456;-77
2023/07/27 03:04:36;;;;;;;4.67;3.30;;;;;;;;;;6222033;23;20870;-78
2023/07/27 03:07:04;;;;;;;7.27;3.87;;;;;;;;;;6220736;23;20847;-78
2023/07/27 03:09:31;;;;;;;5.80;3.30;;;;;;;;;;6219742;23;20674;-77
2023/07/27 03:11:59;;;;;;;7.53;3.80;;;;;;;;;;6222818;23;20811;-78
2023/07/27 03:14:28;;;;;;;5.33;4.03;;;;;;;;;;6218326;23;20390;-78
2023/07/27 03:16:55;;;;;;;5.90;3.43;;;;;;;;;;6218478;23;20452;-78
2023/07/27 03:19:23;;;;;;;6.23;3.67;;;;;;;;;;6218030;23;20410;-78
2023/07/27 03:21:51;;;;;;;5.90;3.63;;;;;;;;;;6218504;23;20689;-78
2023/07/27 03:24:18;;;;;;;5.37;3.67;;;;;;;;;;6219366;23;20804;-79
2023/07/27 03:26:46;;;;;;;6.30;4.10;;;;;;;;;;6219388;23;20887;-78
2023/07/27 03:29:13;;;;;;;5.43;3.60;;;;;;;;;;6219764;23;20421;-78
2023/07/27 03:31:42;;;;;;;5.13;3.60;;;;;;;;;;6224211;23;20421;-79
2023/07/27 03:34:10;;;;;;;7.07;4.20;;;;;;;;;;6225658;23;20414;-79
2023/07/27 03:36:37;;;;;;;11.33;4.57;;;;;;;;;;6226021;23;20422;-78
2023/07/27 03:39:08;;;;;;;9.53;4.23;;;;;;;;;;6225204;23;20425;-78
2023/07/27 03:41:35;;;;;;;7.57;4.37;;;;;;;;;;6225209;23;20544;-78
2023/07/27 03:44:02;;;;;;;8.80;4.07;;;;;;;;;;6226049;23;20481;-78
2023/07/27 03:46:30;;;;;;;6.33;4.50;;;;;;;;;;6227077;23;20457;-78
2023/07/27 03:48:59;;;;;;;6.07;4.90;;;;;;;;;;6222636;23;20473;-78
2023/07/27 03:51:26;;;;;;;5.73;4.03;;;;;;;;;;6223793;23;20390;-79
2023/07/27 03:53:57;;;;;;;6.00;3.90;;;;;;;;;;6223611;23;20414;-78
2023/07/27 03:56:25;;;;;;;5.33;3.90;;;;;;;;;;6222927;23;20410;-78
2023/07/27 03:58:52;;;;;;;7.87;4.00;;;;;;;;;;6221406;23;20728;-78
2023/07/27 04:01:20;;;;;;;5.40;4.30;;;;;;;;;;6224527;23;20512;-78
2023/07/27 04:03:47;;;;;;;7.30;4.57;;;;;;;;;;6221653;23;20714;-79
2023/07/27 04:06:16;;;;;;;7.90;4.40;;;;;;;;;;6222019;23;20540;-79
2023/07/27 04:08:44;;;;;;;5.83;4.10;;;;;;;;;;6221451;23;20836;-78
2023/07/27 04:11:12;;;;;;;9.90;4.37;;;;;;;;;;6223940;23;20816;-79
2023/07/27 04:13:39;;;;;;;7.43;4.57;;;;;;;;;;6220364;23;20424;-79
2023/07/27 04:16:06;;;;;;;4.90;3.67;;;;;;;;;;6223013;23;20397;-79
2023/07/27 04:18:34;;;;;;;8.37;4.20;;;;;;;;;;6222240;23;20397;-79
2023/07/27 04:21:01;;;;;;;6.57;4.63;;;;;;;;;;6221474;23;20410;-78
2023/07/27 04:23:30;;;;;;;6.53;4.73;;;;;;;;;;6223232;23;20720;-78
2023/07/27 04:25:58;;;;;;;5.20;4.37;;;;;;;;;;6222410;23;20918;-78
2023/07/27 04:28:25;;;;;;;7.93;4.63;;;;;;;;;;6222087;23;20410;-78
2023/07/27 04:30:53;;;;;;;7.07;5.47;;;;;;;;;;6221754;23;20406;-78
2023/07/27 04:33:20;;;;;;;7.10;5.07;;;;;;;;;;6223459;23;20425;-78
2023/07/27 04:35:48;;;;;;;7.53;5.27;;;;;;;;;;6223229;23;20410;-77
2023/07/27 04:38:15;;;;;;;6.33;4.80;;;;;;;;;;6226845;23;20859;-77
2023/07/27 04:40:44;;;;;;;8.60;4.87;;;;;;;;;;6224165;23;20401;-77
2023/07/27 04:43:13;;;;;;;5.70;4.53;;;;;;;;;;6222553;23;20390;-77
2023/07/27 04:45:40;;;;;;;8.97;5.20;;;;;;;;;;6224675;23;20675;-77
2023/07/27 04:48:07;;;;;;;9.20;4.93;;;;;;;;;;6222231;23;20440;-78
2023/07/27 04:50:35;;;;;;;11.30;5.80;;;;;;;;;;6220498;23;20405;-78
2023/07/27 04:53:02;;;;;;;7.50;5.10;;;;;;;;;;6218526;23;20414;-78
2023/07/27 04:55:30;;;;;;;8.13;5.57;;;;;;;;;;6218096;23;20449;-77
2023/07/27 04:58:02;;;;;;;7.07;5.10;;;;;;;;;;6218457;23;20399;-77
2023/07/27 05:00:30;;;;;;;6.93;5.07;;;;;;;;;;6220289;23;20666;-77
2023/07/27 05:02:57;;;;;;;16.37;7.10;;;;;;;;;;6218557;23;20516;-79
2023/07/27 05:05:27;;;;;;;7.80;4.93;;;;;;;;;;6218386;23;20679;-77
2023/07/27 05:07:55;;;;;;;7.40;4.80;;;;;;;;;;6223590;23;20409;-77
2023/07/27 05:10:23;;;;;;;6.47;4.50;;;;;;;;;;6220425;23;20418;-77
2023/07/27 05:12:54;;;;;;;7.33;3.83;;;;;;;;;;6218669;23;20394;-77
2023/07/27 05:15:23;;;;;;;5.67;4.43;;;;;;;;;;6221120;23;20401;-77
2023/07/27 05:17:50;;;;;;;9.70;5.00;;;;;;;;;;6218599;23;20528;-77
2023/07/27 05:20:18;;;;;;;7.00;5.23;;;;;;;;;;6222139;23;20874;-80
2023/07/27 05:22:45;;;;;;;7.83;5.30;;;;;;;;;;6222991;23;20399;-78
2023/07/27 05:25:13;;;;;;;8.10;4.90;;;;;;;;;;6224771;23;20963;-78
2023/07/27 05:27:41;;;;;;;8.17;5.50;;;;;;;;;;6222983;23;20442;-78
2023/07/27 05:30:09;;;;;;;7.27;4.70;;;;;;;;;;6225758;23;20737;-78
2023/07/27 05:32:39;;;;;;;7.33;5.90;;;;;;;;;;6227274;23;20418;-78
2023/07/27 05:35:07;;;;;;;6.93;4.60;;;;;;;;;;6225984;23;20433;-78
2023/07/27 05:37:34;;;;;;;7.47;5.23;;;;;;;;;;6228780;23;20489;-78
2023/07/27 05:40:09;;;;;;;9.10;5.30;;;;;;;;;;6226205;23;20435;-78
2023/07/27 05:42:36;;;;;;;6.83;5.20;;;;;;;;;;6231913;23;20397;-78
2023/07/27 05:45:07;;;;;;;9.23;4.67;;;;;;;;;;6226951;23;20425;-79
2023/07/27 05:47:35;;;;;;;7.73;4.83;;;;;;;;;;6219906;23;20523;-78
2023/07/27 05:50:11;;;;;;;7.73;6.20;;;;;;;;;;6227545;23;20414;-78
2023/07/27 05:52:38;;;;;;;6.33;4.60;;;;;;;;;;6220263;23;20409;-79
2023/07/27 05:55:06;;;;;;;11.50;5.27;;;;;;;;;;6218560;23;20371;-78
2023/07/27 05:57:34;;;;;;;6.93;4.60;;;;;;;;;;6220879;23;20387;-78
2023/07/27 06:00:09;;;;;;;7.50;5.20;;;;;;;;;;6220983;23;20445;-78
2023/07/27 06:02:36;;;;;;;7.93;4.77;;;;;;;;;;6218821;23;20481;-78
2023/07/27 06:05:04;;;;;;;6.43;4.53;;;;;;;;;;6218246;23;20442;-79
2023/07/27 06:07:34;;;;;;;9.70;5.17;;;;;;;;;;6220171;23;20875;-79
2023/07/27 06:10:08;;;;;;;8.00;5.27;;;;;;;;;;6218638;23;20967;-79
2023/07/27 06:12:36;;;;;;;7.30;5.20;;;;;;;;;;6216751;23;20424;-79
2023/07/27 06:15:03;;;;;;;6.70;4.93;;;;;;;;;;6216521;23;20894;-79
2023/07/27 06:17:31;;;;;;;10.50;4.43;;;;;;;;;;6219791;23;20516;-79
2023/07/27 06:19:59;;;;;;;7.13;3.90;;;;;;;;;;6219296;23;20424;-77
2023/07/27 06:22:26;;;;;;;7.70;4.90;;;;;;;;;;6222817;23;20514;-79
2023/07/27 06:24:55;;;;;;;6.80;4.87;;;;;;;;;;6221415;23;20395;-79
2023/07/27 06:27:25;;;;;;;7.07;5.77;;;;;;;;;;6220584;23;20479;-78
2023/07/27 06:29:52;;;;;;;7.50;4.83;;;;;;;;;;6219569;23;20704;-78
2023/07/27 06:32:20;;;;;;;5.33;3.87;;;;;;;;;;6220263;23;20425;-78
2023/07/27 06:34:47;;;;;;;10.93;5.87;;;;;;;;;;6217830;23;20417;-78
2023/07/27 06:37:15;;;;;;;6.07;4.07;;;;;;;;;;6216089;23;20422;-77
2023/07/27 06:39:43;;;;;;;5.93;4.37;;;;;;;;;;6217896;23;20395;-78
2023/07/27 06:42:12;;;;;;;7.00;4.37;;;;;;;;;;6219234;23;20446;-77
2023/07/27 06:44:40;;;;;;;6.87;3.73;;;;;;;;;;6220150;23;20426;-78
2023/07/27 06:47:08;;;;;;;8.30;5.03;;;;;;;;;;6217782;23;20476;-79
2023/07/27 06:49:36;;;;;;;9.77;4.50;;;;;;;;;;6217456;23;20832;-77
2023/07/27 06:52:03;;;;;;;6.47;4.33;;;;;;;;;;6219322;23;20883;-78
2023/07/27 06:54:31;;;;;;;7.40;5.00;;;;;;;;;;6220634;23;20414;-78
2023/07/27 06:56:58;;;;;;;7.77;4.30;;;;;;;;;;6217639;23;20633;-78
2023/07/27 06:59:28;;;;;;;7.43;3.77;;;;;;;;;;6215471;23;20599;-77
2023/07/27 07:01:57;;;;;;;7.60;4.53;;;;;;;;;;6217818;23;20501;-78
2023/07/27 07:04:25;;;;;;;10.17;4.97;;;;;;;;;;6217691;23;20449;-79
2023/07/27 07:06:53;;;;;;;4.80;3.43;;;;;;;;;;6220021;23;20521;-78
2023/07/27 07:09:21;;;;;;;6.20;3.87;;;;;;;;;;6219830;23;20794;-79
2023/07/27 07:11:49;;;;;;;6.63;4.70;;;;;;;;;;6221679;23;20488;-78
2023/07/27 07:14:18;;;;;;;6.33;4.00;;;;;;;;;;6223001;23;20414;-77
2023/07/27 07:16:47;;;;;;;6.10;3.83;;;;;;;;;;6222413;23;20509;-77
2023/07/27 07:19:15;;;;;;;13.60;4.63;;;;;;;;;;6219843;23;20643;-78
2023/07/27 07:21:43;;;;;;;10.53;4.53;;;;;;;;;;6221216;23;20387;-78
2023/07/27 07:24:10;;;;;;;7.30;4.37;;;;;;;;;;6220746;23;20434;-79
2023/07/27 07:26:39;;;;;;;7.20;3.97;;;;;;;;;;6223693;23;20442;-79
2023/07/27 07:29:07;;;;;;;7.73;4.20;;;;;;;;;;6217449;23;20717;-79
2023/07/27 07:34:39;;;;;;;5.13;4.17;;;;;;;;;;6217018;23;20401;-78
2023/07/27 07:37:19;;;;;;;5.20;4.00;;;;;;;;;;6216919;23;20414;-78
2023/07/27 07:39:46;;;;;;;5.20;3.63;;;;;;;;;;6214752;23;20390;-78
2023/07/27 07:42:14;;;;;;;6.20;3.60;;;;;;;;;;6215410;23;20441;-79
2023/07/27 07:44:41;;;;;;;6.87;4.17;;;;;;;;;;6217123;23;20421;-78
2023/07/27 07:47:09;;;;;;;6.27;3.40;;;;;;;;;;6221965;23;20468;-77
2023/07/27 07:49:37;;;;;;;5.43;3.50;;;;;;;;;;6222626;23;20461;-78
2023/07/27 07:52:08;;;;;;;7.60;3.90;;;;;;;;;;6227896;23;20414;-78
2023/07/27 07:54:35;;;;;;;8.40;3.30;;;;;;;;;;6229724;23;20665;-78
2023/07/27 07:57:03;;;;;;;5.20;3.60;;;;;;;;;;6231130;23;20421;-78
2023/07/27 07:59:31;;;;;;;7.53;3.93;;;;;;;;;;6229556;23;20529;-78
2023/07/27 08:01:58;;;;;;;6.67;4.80;;;;;;;;;;6231856;23;20445;-79
2023/07/27 08:04:26;;;;;;;5.80;4.17;;;;;;;;;;6225552;23;20528;-78
2023/07/27 08:06:53;;;;;;;5.57;4.03;;;;;;;;;;6224379;23;20441;-79
2023/07/27 08:09:22;;;;;;;6.93;5.03;;;;;;;;;;6219619;23;20430;-77
2023/07/27 08:11:50;;;;;;;6.57;5.00;;;;;;;;;;6218307;23;20428;-79
2023/07/27 08:14:20;;;;;;;6.13;4.93;;;;;;;;;;6217220;23;20402;-79
2023/07/27 08:16:47;;;;;;;7.40;4.83;;;;;;;;;;6218087;23;20453;-79
2023/07/27 08:19:17;;;;;;;10.13;4.53;;;;;;;;;;6227097;23;20470;-79
2023/07/27 08:21:45;;;;;;;6.53;5.13;;;;;;;;;;6230515;23;20418;-78
2023/07/27 08:24:14;;;;;;;7.70;4.80;;;;;;;;;;6226387;23;20437;-77
2023/07/27 08:26:43;;;;;;;9.50;5.67;;;;;;;;;;6224480;23;20770;-78
2023/07/27 08:29:11;;;;;;;6.80;5.10;;;;;;;;;;6225952;23;20448;-78
2023/07/27 08:31:39;;;;;;;5.93;4.00;;;;;;;;;;6227291;23;20414;-78
2023/07/27 08:34:07;;;;;;;8.87;5.97;;;;;;;;;;6226743;23;20391;-78
2023/07/27 08:36:50;;;;;;;6.60;5.00;;;;;;;;;;6229500;23;20391;-79
2023/07/27 08:39:20;;;;;;;5.90;4.90;;;;;;;;;;6225240;23;20406;-78
2023/07/27 08:41:49;;;;;;;7.60;4.73;;;;;;;;;;6223188;23;20445;-77
2023/07/27 08:44:17;;;;;;;7.40;5.93;;;;;;;;;;6220284;23;20418;-77
2023/07/27 08:46:50;;;;;;;6.97;6.03;;;;;;;;;;6222449;23;20437;-79
2023/07/27 08:49:20;;;;;;;7.03;4.93;;;;;;;;;;6221813;23;20800;-78
2023/07/27 08:51:47;;;;;;;7.50;5.90;;;;;;;;;;6222121;23;20477;-80
2023/07/27 08:54:29;;;;;;;8.07;6.00;;;;;;;;;;6224005;23;20414;-78
2023/07/27 08:59:47;;;;;;;7.80;5.23;;;;;;;;;;6224742;23;20513;-77
2023/07/27 09:02:15;;;;;;;8.40;6.53;;;;;;;;;;6219200;23;20417;-77
2023/07/27 09:04:43;;;;;;;7.60;4.47;;;;;;;;;;6196053;23;20383;-78
2023/07/27 09:07:18;;;;;;;8.30;4.73;;;;;;;;;;6198958;23;20453;-78
2023/07/27 09:09:51;;;;;;;9.37;5.23;;;;;;;;;;6190699;23;20415;-78
2023/07/27 09:15:18;;;;;;;10.00;6.00;;;;;;;;;;6182579;23;20509;-77
2023/07/27 09:17:46;;;;;;;6.57;5.30;;;;;;;;;;6220839;23;20418;-77
2023/07/27 09:20:17;;;;;;;7.53;5.73;;;;;;;;;;6218746;23;20424;-78
2023/07/27 09:22:46;;;;;;;8.93;4.90;;;;;;;;;;6218034;23;20497;-78
2023/07/27 09:25:13;;;;;;;6.13;4.80;;;;;;;;;;6218126;23;20433;-78
2023/07/27 09:27:45;;;;;;;7.50;5.70;;;;;;;;;;6218410;23;20422;-77
2023/07/27 09:30:22;;;;;;;8.90;7.77;;;;;;;;;;6217818;23;20422;-77
2023/07/27 09:32:53;;;;;;;9.17;6.27;;;;;;;;;;6220475;23;20418;-79
2023/07/27 09:35:21;;;;;;;8.87;6.10;;;;;;;;;;6218790;23;21111;-78
2023/07/27 09:38:02;;;;;;;9.20;5.40;;;;;;;;;;6224404;23;20406;-79
2023/07/27 09:40:40;;;;;;;8.20;6.20;;;;;;;;;;6215301;23;21207;-79
2023/07/27 09:43:11;;;;;;;11.43;7.30;;;;;;;;;;6219764;23;20389;-79
2023/07/27 09:45:43;;;;;;;9.80;6.07;;;;;;;;;;6215116;23;20489;-77
2023/07/27 09:48:30;;;;;;;9.67;6.37;;;;;;;;;;6218078;23;20510;-78
2023/07/27 09:51:23;;;;;;;7.93;5.70;;;;;;;;;;6218805;23;20406;-77
2023/07/27 09:53:55;;;;;;;7.13;5.87;;;;;;;;;;6221452;23;20694;-78
2023/07/27 09:56:23;;;;;;;9.97;5.77;;;;;;;;;;6224130;23;20445;-77
2023/07/27 09:58:52;;;;;;;7.83;5.70;;;;;;;;;;6222765;23;20410;-78
2023/07/27 10:01:20;;;;;;;6.83;6.13;;;;;;;;;;6222207;23;20488;-78
2023/07/27 10:03:48;;;;;;;7.77;6.27;;;;;;;;;;6223276;23;20371;-77
2023/07/27 10:06:33;;;;;;;11.83;7.90;;;;;;;;;;6220985;23;20441;-77
2023/07/27 10:09:19;;;;;;;9.10;7.13;;;;;;;;;;6221114;23;20446;-79
2023/07/27 10:11:54;;;;;;;7.20;5.03;;;;;;;;;;6219069;23;20460;-78
2023/07/27 10:14:28;;;;;;;11.63;5.63;;;;;;;;;;6217047;23;20444;-79
2023/07/27 10:17:00;;;;;;;7.40;6.40;;;;;;;;;;6220019;23;20839;-78
2023/07/27 10:19:28;;;;;;;6.50;5.43;;;;;;;;;;6223142;23;20668;-78
2023/07/27 10:21:55;;;;;;;7.20;5.77;;;;;;;;;;6222098;23;20457;-77
2023/07/27 10:24:25;;;;;;;6.97;6.07;;;;;;;;;;6224915;23;20680;-77
2023/07/27 10:26:54;;;;;;;6.60;5.33;;;;;;;;;;6219688;23;20413;-78
2023/07/27 10:29:22;;;;;;;10.07;6.20;;;;;;;;;;6218751;23;20414;-78
2023/07/27 10:32:01;;;;;;;9.93;6.57;;;;;;;;;;6221434;23;20888;-78
2023/07/27 10:34:29;;;;;;;10.97;6.73;;;;;;;;;;6222751;23;20457;-79
2023/07/27 10:37:03;;;;;;;9.37;6.20;;;;;;;;;;6219928;23;20387;-78
2023/07/27 10:40:12;;;;;;;9.20;7.70;;;;;;;;;;6227306;23;20402;-78
2023/07/27 10:42:57;;;;;;;8.77;5.97;;;;;;;;;;6220483;23;20391;-78
2023/07/27 10:45:34;;;;;;;10.70;6.67;;;;;;;;;;6221352;23;20546;-79
2023/07/27 10:48:01;;;;;;;10.73;8.63;;;;;;;;;;6224459;23;20442;-79
2023/07/27 10:50:29;;;;;;;11.47;8.40;;;;;;;;;;6221821;23;20418;-79
2023/07/27 10:52:57;;;;;;;8.77;6.50;;;;;;;;;;6216744;23;20422;-79
2023/07/27 10:55:26;;;;;;;13.87;8.20;;;;;;;;;;6219308;23;20444;-79
2023/07/27 10:58:07;;;;;;;11.33;9.00;;;;;;;;;;6217654;23;20732;-78
2023/07/27 11:00:37;;;;;;;8.00;7.20;;;;;;;;;;6218741;23;20480;-79
2023/07/27 11:03:05;;;;;;;11.53;8.50;;;;;;;;;;6217148;23;20433;-78
2023/07/27 11:05:33;;;;;;;8.97;8.03;;;;;;;;;;6215943;23;20513;-79
2023/07/27 11:08:02;;;;;;;12.23;7.80;;;;;;;;;;6217044;23;20446;-79
2023/07/27 11:10:35;;;;;;;8.73;7.17;;;;;;;;;;6221630;23;20671;-77
2023/07/27 11:13:06;;;;;;;8.40;7.60;;;;;;;;;;6214342;23;20428;-77
2023/07/27 11:15:34;;;;;;;9.40;7.73;;;;;;;;;;6216374;23;20433;-77
2023/07/27 11:18:02;;;;;;;9.00;7.50;;;;;;;;;;6213383;23;20432;-79
2023/07/27 11:20:30;;;;;;;11.70;8.23;;;;;;;;;;6218016;23;20474;-78
2023/07/27 11:23:02;;;;;;;10.53;8.00;;;;;;;;;;6221820;23;20430;-78
2023/07/27 11:25:34;;;;;;;7.73;7.00;;;;;;;;;;6221733;23;20402;-79
2023/07/27 11:28:02;;;;;;;11.83;7.53;;;;;;;;;;6219255;23;20469;-79
2023/07/27 11:30:30;;;;;;;11.10;8.47;;;;;;;;;;6220947;23;20418;-79
2023/07/27 11:32:58;;;;;;;8.37;7.13;;;;;;;;;;6221910;23;20410;-79
2023/07/27 11:35:39;;;;;;;7.40;6.70;;;;;;;;;;6220359;23;20422;-77
2023/07/27 11:38:10;;;;;;;9.00;6.83;;;;;;;;;;6217564;23;20518;-79
2023/07/27 11:40:40;;;;;;;8.47;6.07;;;;;;;;;;6222348;23;20425;-78
2023/07/27 11:43:09;;;;;;;8.30;6.37;;;;;;;;;;6221707;23;20414;-80
2023/07/27 11:45:41;;;;;;;10.27;6.73;;;;;;;;;;6221940;23;20496;-77
2023/07/27 11:48:11;;;;;;;6.37;5.40;;;;;;;;;;6226285;23;20583;-78
2023/07/27 11:50:39;;;;;;;8.30;5.80;;;;;;;;;;6223186;23;20414;-77
2023/07/27 11:53:09;;;;;;;7.53;5.10;;;;;;;;;;6217303;23;20464;-78
2023/07/27 11:55:42;;;;;;;6.00;4.57;;;;;;;;;;6220209;23;20505;-79
2023/07/27 11:58:12;;;;;;;7.03;5.20;;;;;;;;;;6219919;23;20420;-78
2023/07/27 12:00:40;;;;;;;5.73;3.87;;;;;;;;;;6225270;23;20421;-78
2023/07/27 12:03:08;;;;;;;6.30;5.00;;;;;;;;;;6223228;23;20394;-78
2023/07/27 12:05:35;;;;;;;8.93;6.10;;;;;;;;;;6220564;23;20408;-79
2023/07/27 12:08:07;;;;;;;6.07;4.70;;;;;;;;;;6226369;23;20442;-79
2023/07/27 12:10:39;;;;;;;7.70;4.20;;;;;;;;;;6219697;23;20424;-79
2023/07/27 12:13:11;;;;;;;6.40;4.43;;;;;;;;;;6220042;23;20413;-78
2023/07/27 12:15:43;;;;;;;5.30;3.83;;;;;;;;;;6219772;23;20442;-78
2023/07/27 12:18:12;;;;;;;4.83;3.10;;;;;;;;;;6218919;23;21153;-79
2023/07/27 12:20:39;;;;;;;7.53;3.97;;;;;;;;;;6224892;23;20456;-79
2023/07/27 12:23:11;;;;;;;7.80;4.40;;;;;;;;;;6218406;23;20414;-78
2023/07/27 12:25:39;;;;;;;5.40;3.27;;;;;;;;;;6221923;23;20386;-78
2023/07/27 12:28:08;;;;;;;8.00;2.90;;;;;;;;;;6218172;23;20449;-79
2023/07/27 12:30:37;;;;;;;5.90;3.50;;;;;;;;;;6216698;23;20378;-78
2023/07/27 12:33:06;;;;;;;5.37;3.00;;;;;;;;;;6219195;23;20426;-79
2023/07/27 12:35:36;;;;;;;6.07;2.40;;;;;;;;;;6213354;23;20402;-78
2023/07/27 12:38:09;;;;;;;6.23;2.87;;;;;;;;;;6216747;23;20406;-79
2023/07/27 12:40:37;;;;;;;8.50;4.67;;;;;;;;;;6219524;23;20418;-79
2023/07/27 12:43:05;;;;;;;5.83;3.20;;;;;;;;;;6212482;23;20461;-79
2023/07/27 12:45:33;;;;;;;6.77;4.33;;;;;;;;;;6218054;23;20462;-77
2023/07/27 12:48:02;;;;;;;5.60;3.07;;;;;;;;;;6215248;23;20446;-78
2023/07/27 12:50:30;;;;;;;6.27;3.97;;;;;;;;;;6216463;23;20512;-80
2023/07/27 12:52:59;;;;;;;7.60;3.00;;;;;;;;;;6218567;23;20477;-77
2023/07/27 12:55:28;;;;;;;4.10;3.00;;;;;;;;;;6217807;23;20414;-77
2023/07/27 12:57:57;;;;;;;10.00;5.20;;;;;;;;;;6220317;23;20387;-79
2023/07/27 13:00:24;;;;;;;7.03;4.77;;;;;;;;;;6218236;23;20375;-77
2023/07/27 13:02:52;;;;;;;4.57;2.50;;;;;;;;;;6215437;23;20532;-77
2023/07/27 13:05:22;;;;;;;3.70;2.80;;;;;;;;;;6218519;23;21050;-79
2023/07/27 13:07:50;;;;;;;3.70;2.97;;;;;;;;;;6216321;23;20881;-78
2023/07/27 13:10:18;;;;;;;4.67;3.10;;;;;;;;;;6219420;23;20859;-78
2023/07/27 13:12:46;;;;;;;5.20;3.40;;;;;;;;;;6216784;23;20398;-78
2023/07/27 13:15:16;;;;;;;6.33;2.87;;;;;;;;;;6220941;23;20444;-78
2023/07/27 13:17:46;;;;;;;4.83;3.53;;;;;;;;;;6222344;23;20429;-79
2023/07/27 13:20:17;;;;;;;10.33;4.00;;;;;;;;;;6223115;23;20691;-79
2023/07/27 13:22:47;;;;;;;5.40;2.90;;;;;;;;;;6222609;23;20410;-77
2023/07/27 13:25:14;;;;;;;4.57;3.17;;;;;;;;;;6221098;23;20433;-79
2023/07/27 13:27:42;;;;;;;6.17;3.10;;;;;;;;;;6224357;23;20414;-79
2023/07/27 13:30:17;;;;;;;7.07;3.47;;;;;;;;;;6226350;23;20446;-78
2023/07/27 13:32:55;;;;;;;6.23;3.03;;;;;;;;;;6221556;23;20834;-78
2023/07/27 13:35:24;;;;;;;4.87;2.77;;;;;;;;;;6225155;23;20418;-78
2023/07/27 13:37:55;;;;;;;4.97;3.30;;;;;;;;;;6221377;23;20673;-78
2023/07/27 13:40:26;;;;;;;5.07;2.90;;;;;;;;;;6227167;23;20407;-81
2023/07/27 13:42:54;;;;;;;4.40;3.50;;;;;;;;;;6223681;23;20445;-78
2023/07/27 13:45:25;;;;;;;4.93;3.50;;;;;;;;;;6224161;23;20394;-78
2023/07/27 13:48:11;;;;;;;3.97;3.07;;;;;;;;;;6223897;23;20441;-79
2023/07/27 13:50:40;;;;;;;6.20;3.37;;;;;;;;;;6222886;23;20564;-78
2023/07/27 13:53:13;;;;;;;4.43;2.97;;;;;;;;;;6218758;23;20391;-77
2023/07/27 13:55:41;;;;;;;6.60;3.80;;;;;;;;;;6220828;23;20410;-78
2023/07/27 13:58:11;;;;;;;5.93;3.03;;;;;;;;;;6221668;23;20414;-78
2023/07/27 14:00:42;;;;;;;4.13;2.60;;;;;;;;;;6221264;23;20490;-77
2023/07/27 14:03:26;;;;;;;7.63;3.37;;;;;;;;;;6222303;23;20394;-78
2023/07/27 14:06:04;;;;;;;7.93;3.10;;;;;;;;;;6218121;23;20445;-77
2023/07/27 14:08:35;;;;;;;4.90;3.17;;;;;;;;;;6225421;23;20452;-78
2023/07/27 14:11:04;;;;;;;5.83;3.03;;;;;;;;;;6224412;23;20409;-79
2023/07/27 14:13:33;;;;;;;4.90;3.00;;;;;;;;;;6221969;23;20433;-78
2023/07/27 14:16:14;;;;;;;10.70;4.67;;;;;;;;;;6225525;23;20426;-79
2023/07/27 14:18:43;;;;;;;8.80;4.30;;;;;;;;;;6223888;23;20411;-79
2023/07/27 14:21:14;;;;;;;7.90;3.53;;;;;;;;;;6196642;23;21239;-78
2023/07/27 14:23:47;;;;;;;5.17;3.10;;;;;;;;;;6222823;23;20390;-79
2023/07/27 14:26:16;;;;;;;4.00;2.77;;;;;;;;;;6216032;23;21148;-78
2023/07/27 14:28:44;;;;;;;3.77;2.50;;;;;;;;;;6216182;23;20498;-78
2023/07/27 14:31:11;;;;;;;4.03;2.53;;;;;;;;;;6224024;23;20635;-78
2023/07/27 14:33:39;;;;;;;4.43;3.17;;;;;;;;;;6217211;23;20416;-77
2023/07/27 14:36:07;;;;;;;4.60;3.20;;;;;;;;;;6218718;23;20391;-78
2023/07/27 14:38:35;;;;;;;6.77;4.30;;;;;;;;;;6218850;23;20593;-78
2023/07/27 14:41:04;;;;;;;5.30;2.67;;;;;;;;;;6218653;23;20734;-78
2023/07/27 14:43:31;;;;;;;4.23;3.43;;;;;;;;;;6217181;23;20453;-79
2023/07/27 14:45:58;;;;;;;5.33;3.17;;;;;;;;;;6215473;23;20414;-79
2023/07/27 14:48:26;;;;;;;7.23;4.20;;;;;;;;;;6213454;23;20422;-79
2023/07/27 14:50:54;;;;;;;3.70;2.73;;;;;;;;;;6216224;23;20395;-79
2023/07/27 14:53:21;;;;;;;4.03;2.70;;;;;;;;;;6216746;23;20490;-78
2023/07/27 14:55:49;;;;;;;3.27;2.40;;;;;;;;;;6211893;23;20418;-80
2023/07/27 14:58:18;;;;;;;4.43;2.73;;;;;;;;;;6213746;23;20410;-80
2023/07/27 15:00:46;;;;;;;3.70;2.30;;;;;;;;;;6218984;23;20463;-78
2023/07/27 15:03:13;;;;;;;4.77;2.97;;;;;;;;;;6216798;23;20422;-77
2023/07/27 15:05:41;;;;;;;4.70;2.97;;;;;;;;;;6219256;23;20839;-78